createdAt,value
2018-08-22T00:00:04.842Z,0.99
2018-08-22T00:00:24.479Z,0.50
2018-08-22T00:00:44.394Z,0.42
2018-08-22T00:01:04.896Z,0.37
2018-08-22T00:01:24.961Z,0.21
2018-08-22T00:01:44.930Z,0.08
2018-08-22T00:02:06.276Z,0.08
2018-08-22T00:02:25.651Z,0.12
2018-08-22T00:02:46.078Z,0.00
2018-08-22T00:03:07.431Z,0.00
2018-08-22T00:03:26.837Z,0.58
2018-08-22T00:03:47.192Z,1.37
2018-08-22T00:04:07.746Z,1.00
2018-08-22T00:04:27.662Z,1.73
2018-08-22T00:04:48.578Z,1.79
2018-08-22T00:05:08.723Z,1.62
2018-08-22T00:05:28.572Z,1.18
2018-08-22T00:05:49.711Z,1.13
2018-08-22T00:06:09.405Z,0.59
2018-08-22T00:06:29.258Z,0.46
2018-08-22T00:06:50.639Z,1.08
2018-08-22T00:07:10.146Z,1.00
2018-08-22T00:07:30.036Z,0.72
2018-08-22T00:07:51.256Z,1.58
2018-08-22T00:08:10.696Z,1.30
2018-08-22T00:08:52.046Z,0.68
2018-08-22T00:09:11.419Z,1.17
2018-08-22T00:09:31.796Z,0.67
2018-08-22T00:09:52.558Z,0.87
2018-08-22T00:10:12.467Z,0.96
2018-08-22T00:10:32.802Z,0.87
2018-08-22T00:10:53.473Z,0.42
2018-08-22T00:11:13.403Z,0.63
2018-08-22T00:11:34.699Z,0.66
2018-08-22T00:11:54.613Z,0.38
2018-08-22T00:12:14.502Z,0.08
2018-08-22T00:12:35.845Z,0.87
2018-08-22T00:12:55.277Z,0.71
2018-08-22T00:13:15.739Z,0.37
2018-08-22T00:13:36.978Z,0.87
2018-08-22T00:13:56.390Z,0.84
2018-08-22T00:14:16.753Z,0.91
2018-08-22T00:14:37.431Z,0.96
2018-08-22T00:14:57.322Z,0.42
2018-08-22T00:15:17.745Z,0.17
2018-08-22T00:15:38.529Z,0.00
2018-08-22T00:15:58.411Z,0.25
2018-08-22T00:16:19.679Z,0.67
2018-08-22T00:16:39.146Z,0.29
2018-08-22T00:16:59.632Z,0.08
2018-08-22T00:17:20.892Z,0.00
2018-08-22T00:17:40.345Z,0.00
2018-08-22T00:18:00.732Z,0.04
2018-08-22T00:18:41.169Z,0.00
2018-08-22T00:19:01.548Z,0.00
2018-08-22T00:19:22.388Z,0.00
2018-08-22T00:19:42.299Z,0.00
2018-08-22T00:20:03.733Z,0.04
2018-08-22T00:20:23.496Z,0.00
2018-08-22T00:20:43.534Z,0.00
2018-08-22T00:21:04.377Z,0.00
2018-08-22T00:21:24.188Z,0.00
2018-08-22T00:21:44.052Z,0.00
2018-08-22T00:22:05.290Z,0.00
2018-08-22T00:22:24.792Z,0.00
2018-08-22T00:22:45.196Z,0.00
2018-08-22T00:23:06.731Z,0.00
2018-08-22T00:23:25.632Z,0.00
2018-08-22T00:23:46.269Z,0.21
2018-08-22T00:24:06.951Z,0.72
2018-08-22T00:24:26.361Z,0.38
2018-08-22T00:24:46.732Z,0.17
2018-08-22T00:25:07.498Z,0.25
2018-08-22T00:25:27.487Z,0.04
2018-08-22T00:25:47.771Z,0.00
2018-08-22T00:26:08.488Z,0.00
2018-08-22T00:26:28.428Z,0.04
2018-08-22T00:26:49.643Z,0.00
2018-08-22T00:27:09.561Z,0.08
2018-08-22T00:27:29.444Z,0.04
2018-08-22T00:27:50.879Z,0.00
2018-08-22T00:28:10.470Z,0.00
2018-08-22T00:28:30.379Z,0.00
2018-08-22T00:28:51.704Z,0.00
2018-08-22T00:29:31.421Z,0.17
2018-08-22T00:29:52.033Z,0.88
2018-08-22T00:30:11.493Z,0.13
2018-08-22T00:30:31.957Z,0.00
2018-08-22T00:30:52.742Z,0.50
2018-08-22T00:31:12.782Z,0.33
2018-08-22T00:31:32.753Z,0.51
2018-08-22T00:31:53.589Z,0.37
2018-08-22T00:32:13.734Z,0.00
2018-08-22T00:32:34.223Z,0.00
2018-08-22T00:32:54.199Z,0.00
2018-08-22T00:33:14.652Z,0.08
2018-08-22T00:33:36.078Z,0.00
2018-08-22T00:33:55.500Z,0.54
2018-08-22T00:34:15.882Z,0.95
2018-08-22T00:34:37.109Z,0.91
2018-08-22T00:34:56.526Z,0.34
2018-08-22T00:35:17.141Z,0.08
2018-08-22T00:35:37.466Z,0.25
2018-08-22T00:35:57.356Z,0.42
2018-08-22T00:36:17.731Z,0.25
2018-08-22T00:36:38.560Z,0.29
2018-08-22T00:36:58.487Z,0.33
2018-08-22T00:37:19.229Z,1.04
2018-08-22T00:37:39.262Z,0.54
2018-08-22T00:37:59.126Z,1.06
2018-08-22T00:38:20.548Z,0.75
2018-08-22T00:38:39.975Z,1.12
2018-08-22T00:39:00.332Z,1.95
2018-08-22T00:39:21.570Z,1.84
2018-08-22T00:39:41.004Z,0.92
2018-08-22T00:40:01.477Z,1.78
2018-08-22T00:40:22.174Z,2.07
2018-08-22T00:40:42.131Z,1.01
2018-08-22T00:41:02.945Z,3.06
2018-08-22T00:41:23.146Z,2.05
2018-08-22T00:41:43.301Z,1.46
2018-08-22T00:42:04.084Z,0.59
2018-08-22T00:42:23.778Z,0.46
2018-08-22T00:42:43.658Z,0.38
2018-08-22T00:43:04.713Z,1.54
2018-08-22T00:43:24.504Z,0.97
2018-08-22T00:43:44.400Z,0.79
2018-08-22T00:44:05.834Z,0.67
2018-08-22T00:44:25.403Z,1.32
2018-08-22T00:44:45.328Z,0.42
2018-08-22T00:45:06.555Z,0.00
2018-08-22T00:45:25.991Z,0.25
2018-08-22T00:45:46.465Z,0.91
2018-08-22T00:46:07.391Z,1.45
2018-08-22T00:46:27.431Z,1.33
2018-08-22T00:46:47.639Z,1.01
2018-08-22T00:47:07.755Z,0.46
2018-08-22T00:47:27.632Z,0.25
2018-08-22T00:47:48.245Z,0.17
2018-08-22T00:48:08.107Z,0.80
2018-08-22T00:48:28.616Z,0.33
2018-08-22T00:48:49.274Z,0.47
2018-08-22T00:49:08.939Z,0.51
2018-08-22T00:49:28.878Z,0.08
2018-08-22T00:49:50.203Z,0.00
2018-08-22T00:50:09.632Z,0.00
2018-08-22T00:50:30.007Z,0.50
2018-08-22T00:50:51.438Z,1.04
2018-08-22T00:51:10.875Z,1.16
2018-08-22T00:51:31.245Z,0.87
2018-08-22T00:51:52.288Z,0.50
2018-08-22T00:52:11.694Z,0.13
2018-08-22T00:52:32.295Z,0.08
2018-08-22T00:52:52.527Z,0.13
2018-08-22T00:53:12.428Z,0.08
2018-08-22T00:53:32.831Z,0.75
2018-08-22T00:53:53.521Z,1.12
2018-08-22T00:54:13.446Z,0.67
2018-08-22T00:54:34.774Z,0.25
2018-08-22T00:54:54.322Z,0.04
2018-08-22T00:55:14.831Z,0.17
2018-08-22T00:55:34.576Z,0.46
2018-08-22T00:55:54.600Z,0.25
2018-08-22T00:56:14.523Z,0.08
2018-08-22T00:56:35.912Z,0.08
2018-08-22T00:56:55.340Z,0.25
2018-08-22T00:57:15.698Z,0.46
2018-08-22T00:57:36.853Z,0.25
2018-08-22T00:57:56.212Z,0.04
2018-08-22T00:58:16.817Z,0.21
2018-08-22T00:58:37.285Z,0.68
2018-08-22T00:58:57.420Z,0.74
2018-08-22T00:59:17.373Z,0.80
2018-08-22T00:59:38.020Z,0.54
2018-08-22T00:59:58.112Z,0.42
2018-08-22T01:00:18.124Z,0.55
2018-08-22T01:00:38.405Z,0.68
2018-08-22T01:00:58.495Z,0.29
2018-08-22T01:01:19.154Z,0.04
2018-08-22T01:01:38.804Z,0.00
2018-08-22T01:01:58.657Z,0.04
2018-08-22T01:02:19.979Z,0.29
2018-08-22T01:02:39.771Z,0.08
2018-08-22T01:02:59.626Z,0.17
2018-08-22T01:03:20.900Z,1.04
2018-08-22T01:03:40.335Z,0.96
2018-08-22T01:04:00.720Z,0.70
2018-08-22T01:04:21.835Z,0.58
2018-08-22T01:04:41.189Z,0.67
2018-08-22T01:05:01.670Z,0.75
2018-08-22T01:05:22.512Z,1.08
2018-08-22T01:05:42.393Z,1.88
2018-08-22T01:06:03.518Z,1.21
2018-08-22T01:06:23.281Z,1.60
2018-08-22T01:06:43.220Z,1.59
2018-08-22T01:07:04.523Z,2.16
2018-08-22T01:07:24.131Z,1.34
2018-08-22T01:07:44.168Z,1.43
2018-08-22T01:08:05.175Z,1.77
2018-08-22T01:08:24.207Z,1.48
2018-08-22T01:08:44.340Z,1.18
2018-08-22T01:09:05.278Z,1.18
2018-08-22T01:09:24.723Z,1.66
2018-08-22T01:09:45.213Z,1.82
2018-08-22T01:10:06.617Z,0.66
2018-08-22T01:10:26.180Z,0.46
2018-08-22T01:10:46.143Z,0.68
2018-08-22T01:11:07.269Z,1.83
2018-08-22T01:11:26.667Z,1.47
2018-08-22T01:11:47.022Z,0.58
2018-08-22T01:12:07.717Z,0.50
2018-08-22T01:12:27.706Z,0.29
2018-08-22T01:12:48.714Z,0.95
2018-08-22T01:13:08.185Z,2.57
2018-08-22T01:13:28.637Z,1.82
2018-08-22T01:13:49.951Z,1.86
2018-08-22T01:14:09.312Z,1.55
2018-08-22T01:14:29.761Z,2.41
2018-08-22T01:14:51.191Z,1.20
2018-08-22T01:15:10.621Z,0.79
2018-08-22T01:15:31.163Z,1.37
2018-08-22T01:15:51.911Z,0.76
2018-08-22T01:16:11.339Z,1.26
2018-08-22T01:16:31.932Z,1.12
2018-08-22T01:16:52.266Z,0.34
2018-08-22T01:17:12.204Z,0.75
2018-08-22T01:17:32.651Z,1.33
2018-08-22T01:17:53.366Z,2.91
2018-08-22T01:18:13.296Z,2.55
2018-08-22T01:18:34.382Z,2.45
2018-08-22T01:18:54.168Z,3.46
2018-08-22T01:19:14.029Z,2.42
2018-08-22T01:19:35.451Z,0.91
2018-08-22T01:19:54.807Z,1.00
2018-08-22T01:20:15.693Z,1.00
2018-08-22T01:20:36.683Z,2.00
2018-08-22T01:20:56.114Z,0.95
2018-08-22T01:21:16.673Z,0.95
2018-08-22T01:21:37.233Z,0.55
2018-08-22T01:21:56.631Z,0.80
2018-08-22T01:22:17.017Z,1.70
2018-08-22T01:22:37.670Z,2.20
2018-08-22T01:22:57.558Z,2.23
2018-08-22T01:23:17.963Z,3.24
2018-08-22T01:23:38.691Z,2.16
2018-08-22T01:23:58.590Z,1.84
2018-08-22T01:24:19.825Z,1.16
2018-08-22T01:24:39.382Z,1.04
2018-08-22T01:24:59.343Z,2.15
2018-08-22T01:25:20.849Z,2.07
2018-08-22T01:25:39.794Z,1.91
2018-08-22T01:26:00.243Z,0.99
2018-08-22T01:26:21.268Z,1.70
2018-08-22T01:26:40.764Z,1.70
2018-08-22T01:27:01.169Z,0.95
2018-08-22T01:27:22.118Z,1.08
2018-08-22T01:27:42.036Z,1.21
2018-08-22T01:28:02.858Z,2.08
2018-08-22T01:28:23.015Z,2.26
2018-08-22T01:28:42.955Z,1.81
2018-08-22T01:29:04.283Z,1.20
2018-08-22T01:29:24.047Z,1.04
2018-08-22T01:29:44.206Z,1.09
2018-08-22T01:30:05.009Z,1.60
2018-08-22T01:30:24.527Z,1.00
2018-08-22T01:30:44.402Z,0.55
2018-08-22T01:31:05.423Z,0.37
2018-08-22T01:31:24.849Z,0.76
2018-08-22T01:31:45.330Z,1.16
2018-08-22T01:32:06.760Z,0.87
2018-08-22T01:32:26.394Z,0.46
2018-08-22T01:32:46.361Z,0.21
2018-08-22T01:33:07.301Z,0.00
2018-08-22T01:33:27.229Z,0.04
2018-08-22T01:33:47.699Z,0.00
2018-08-22T01:34:08.171Z,0.12
2018-08-22T01:34:28.531Z,0.08
2018-08-22T01:34:49.886Z,0.67
2018-08-22T01:35:09.646Z,0.75
2018-08-22T01:35:29.588Z,0.29
2018-08-22T01:35:51.120Z,0.17
2018-08-22T01:36:09.977Z,0.25
2018-08-22T01:36:30.412Z,0.29
2018-08-22T01:36:51.654Z,0.21
2018-08-22T01:37:11.179Z,0.46
2018-08-22T01:37:31.139Z,0.34
2018-08-22T01:37:52.284Z,0.04
2018-08-22T01:38:11.941Z,0.34
2018-08-22T01:38:31.872Z,0.25
2018-08-22T01:38:52.622Z,1.28
2018-08-22T01:39:12.556Z,1.17
2018-08-22T01:39:33.124Z,0.67
2018-08-22T01:39:53.304Z,0.93
2018-08-22T01:40:13.318Z,1.13
2018-08-22T01:40:34.054Z,1.24
2018-08-22T01:40:54.293Z,1.00
2018-08-22T01:41:14.311Z,0.25
2018-08-22T01:41:35.082Z,0.30
2018-08-22T01:41:54.619Z,0.79
2018-08-22T01:42:14.587Z,1.53
2018-08-22T01:42:36.010Z,1.78
2018-08-22T01:42:55.442Z,1.08
2018-08-22T01:43:15.856Z,1.37
2018-08-22T01:43:36.626Z,1.45
2018-08-22T01:43:56.577Z,1.13
2018-08-22T01:44:17.051Z,1.45
2018-08-22T01:44:37.804Z,0.70
2018-08-22T01:44:57.703Z,0.92
2018-08-22T01:45:18.825Z,0.83
2018-08-22T01:45:38.501Z,1.60
2018-08-22T01:45:58.497Z,1.81
2018-08-22T01:46:19.758Z,1.19
2018-08-22T01:46:39.356Z,1.09
2018-08-22T01:46:59.218Z,1.01
2018-08-22T01:47:20.683Z,0.67
2018-08-22T01:47:40.324Z,1.32
2018-08-22T01:48:00.442Z,1.48
2018-08-22T01:48:21.305Z,0.67
2018-08-22T01:48:40.746Z,0.42
2018-08-22T01:49:01.213Z,0.58
2018-08-22T01:49:22.270Z,1.37
2018-08-22T01:49:41.641Z,0.97
2018-08-22T01:50:02.390Z,0.96
2018-08-22T01:50:22.765Z,0.92
2018-08-22T01:50:42.785Z,0.96
2018-08-22T01:51:03.404Z,0.63
2018-08-22T01:51:23.085Z,0.89
2018-08-22T01:51:43.004Z,0.88
2018-08-22T01:52:03.722Z,1.32
2018-08-22T01:52:23.908Z,1.26
2018-08-22T01:52:43.977Z,0.67
2018-08-22T01:53:04.657Z,0.38
2018-08-22T01:53:24.256Z,0.25
2018-08-22T01:53:44.178Z,0.29
2018-08-22T01:54:05.267Z,0.37
2018-08-22T01:54:24.706Z,0.25
2018-08-22T01:54:45.362Z,0.37
2018-08-22T01:55:06.184Z,0.55
2018-08-22T01:55:25.920Z,0.75
2018-08-22T01:55:45.793Z,0.79
2018-08-22T01:56:07.110Z,0.54
2018-08-22T01:56:26.457Z,0.75
2018-08-22T01:56:46.965Z,0.84
2018-08-22T01:57:07.382Z,0.59
2018-08-22T01:57:27.308Z,1.08
2018-08-22T01:57:47.754Z,1.78
2018-08-22T01:58:08.156Z,0.79
2018-08-22T01:58:28.705Z,0.50
2018-08-22T01:58:49.429Z,1.14
2018-08-22T01:59:09.144Z,0.84
2018-08-22T01:59:28.998Z,1.25
2018-08-22T01:59:50.139Z,1.00
2018-08-22T02:00:09.620Z,0.59
2018-08-22T02:00:30.174Z,0.41
2018-08-22T02:00:50.956Z,0.55
2018-08-22T02:01:10.403Z,1.25
2018-08-22T02:01:30.782Z,0.95
2018-08-22T02:01:52.022Z,0.29
2018-08-22T02:02:11.447Z,0.00
2018-08-22T02:02:31.917Z,0.12
2018-08-22T02:02:52.577Z,0.46
2018-08-22T02:03:12.507Z,1.26
2018-08-22T02:03:32.966Z,1.45
2018-08-22T02:03:53.873Z,2.11
2018-08-22T02:04:13.872Z,1.79
2018-08-22T02:04:34.891Z,1.24
2018-08-22T02:04:54.603Z,0.80
2018-08-22T02:05:14.985Z,0.08
2018-08-22T02:05:35.853Z,0.25
2018-08-22T02:05:55.318Z,0.21
2018-08-22T02:06:15.763Z,0.04
2018-08-22T02:06:36.887Z,0.04
2018-08-22T02:06:56.324Z,0.04
2018-08-22T02:07:16.846Z,0.00
2018-08-22T02:07:56.993Z,0.08
2018-08-22T02:08:16.901Z,1.13
2018-08-22T02:08:37.573Z,0.54
2018-08-22T02:08:57.461Z,0.71
2018-08-22T02:09:18.064Z,0.46
2018-08-22T02:09:38.235Z,0.17
2018-08-22T02:09:58.401Z,0.00
2018-08-22T02:10:18.502Z,0.00
2018-08-22T02:10:39.008Z,0.00
2018-08-22T02:10:58.429Z,0.00
2018-08-22T02:11:19.611Z,0.04
2018-08-22T02:11:39.163Z,0.67
2018-08-22T02:11:59.111Z,1.01
2018-08-22T02:12:20.436Z,0.71
2018-08-22T02:12:40.009Z,1.21
2018-08-22T02:12:59.971Z,1.56
2018-08-22T02:13:21.246Z,0.50
2018-08-22T02:13:40.710Z,1.00
2018-08-22T02:14:22.047Z,1.15
2018-08-22T02:14:41.524Z,1.50
2018-08-22T02:15:02.342Z,0.79
2018-08-22T02:15:22.650Z,0.54
2018-08-22T02:15:42.512Z,1.25
2018-08-22T02:16:23.228Z,1.70
2018-08-22T02:16:43.167Z,1.01
2018-08-22T02:17:04.393Z,0.91
2018-08-22T02:17:24.110Z,1.75
2018-08-22T02:17:43.959Z,1.09
2018-08-22T02:18:05.219Z,0.67
2018-08-22T02:18:24.653Z,0.42
2018-08-22T02:18:45.035Z,0.33
2018-08-22T02:19:06.271Z,1.33
2018-08-22T02:19:25.676Z,1.05
2018-08-22T02:19:46.097Z,1.99
2018-08-22T02:20:07.290Z,0.83
2018-08-22T02:20:26.707Z,0.38
2018-08-22T02:20:47.125Z,0.66
2018-08-22T02:21:07.702Z,0.83
2018-08-22T02:21:27.566Z,0.55
2018-08-22T02:21:48.162Z,0.00
2018-08-22T02:22:08.064Z,0.38
2018-08-22T02:22:28.468Z,1.33
2018-08-22T02:22:49.684Z,1.75
2018-08-22T02:23:09.487Z,1.38
2018-08-22T02:23:29.568Z,0.75
2018-08-22T02:23:50.421Z,0.72
2018-08-22T02:24:09.989Z,0.79
2018-08-22T02:24:29.916Z,0.51
2018-08-22T02:24:51.336Z,0.37
2018-08-22T02:25:10.852Z,0.67
2018-08-22T02:25:31.266Z,0.37
2018-08-22T02:25:52.102Z,0.58
2018-08-22T02:26:12.001Z,0.58
2018-08-22T02:26:32.387Z,0.37
2018-08-22T02:26:53.048Z,0.21
2018-08-22T02:27:12.931Z,0.08
2018-08-22T02:27:33.744Z,0.12
2018-08-22T02:27:53.922Z,0.13
2018-08-22T02:28:13.771Z,0.00
2018-08-22T02:28:35.184Z,0.00
2018-08-22T02:28:54.659Z,0.04
2018-08-22T02:29:15.091Z,0.00
2018-08-22T02:29:36.319Z,0.54
2018-08-22T02:29:55.892Z,0.63
2018-08-22T02:30:16.469Z,0.21
2018-08-22T02:30:36.876Z,0.17
2018-08-22T02:30:56.492Z,0.04
2018-08-22T02:31:16.499Z,1.09
2018-08-22T02:31:36.482Z,1.19
2018-08-22T02:31:56.920Z,0.74
2018-08-22T02:32:17.364Z,0.66
2018-08-22T02:32:38.029Z,0.66
2018-08-22T02:32:57.925Z,0.29
2018-08-22T02:33:19.279Z,0.08
2018-08-22T02:33:39.176Z,0.54
2018-08-22T02:33:59.057Z,0.29
2018-08-22T02:34:20.377Z,0.21
2018-08-22T02:34:39.806Z,0.12
2018-08-22T02:35:00.386Z,0.00
2018-08-22T02:35:21.196Z,0.00
2018-08-22T02:35:40.639Z,0.00
2018-08-22T02:36:01.010Z,0.12
2018-08-22T02:36:22.336Z,0.96
2018-08-22T02:36:41.794Z,0.46
2018-08-22T02:37:02.475Z,0.46
2018-08-22T02:37:22.705Z,0.80
2018-08-22T02:37:42.591Z,0.33
2018-08-22T02:38:03.711Z,0.00
2018-08-22T02:38:23.354Z,0.30
2018-08-22T02:38:43.452Z,0.34
2018-08-22T02:39:04.341Z,0.17
2018-08-22T02:39:24.125Z,0.41
2018-08-22T02:39:44.040Z,1.00
2018-08-22T02:40:05.463Z,0.62
2018-08-22T02:40:24.981Z,0.37
2018-08-22T02:40:44.861Z,0.13
2018-08-22T02:41:06.191Z,0.29
2018-08-22T02:41:25.623Z,1.75
2018-08-22T02:41:46.138Z,1.50
2018-08-22T02:42:06.913Z,1.06
2018-08-22T02:42:26.341Z,1.00
2018-08-22T02:42:46.715Z,0.79
2018-08-22T02:43:07.548Z,1.16
2018-08-22T02:43:27.503Z,1.00
2018-08-22T02:43:48.196Z,1.08
2018-08-22T02:44:08.132Z,1.26
2018-08-22T02:44:28.604Z,0.79
2018-08-22T02:44:49.833Z,0.29
2018-08-22T02:45:09.515Z,0.08
2018-08-22T02:45:29.438Z,0.50
2018-08-22T02:45:50.861Z,0.42
2018-08-22T02:46:10.284Z,0.37
2018-08-22T02:46:30.768Z,0.17
2018-08-22T02:46:51.891Z,0.25
2018-08-22T02:47:11.480Z,0.00
2018-08-22T02:47:31.387Z,0.17
2018-08-22T02:47:52.206Z,0.42
2018-08-22T02:48:12.154Z,0.63
2018-08-22T02:48:32.633Z,0.29
2018-08-22T02:48:53.360Z,0.12
2018-08-22T02:49:13.206Z,0.38
2018-08-22T02:49:34.504Z,0.79
2018-08-22T02:49:54.165Z,0.58
2018-08-22T02:50:14.172Z,1.43
2018-08-22T02:50:34.922Z,1.31
2018-08-22T02:50:54.387Z,0.88
2018-08-22T02:51:14.834Z,0.12
2018-08-22T02:51:36.026Z,0.08
2018-08-22T02:51:55.479Z,0.88
2018-08-22T02:52:15.866Z,0.37
2018-08-22T02:52:37.094Z,0.12
2018-08-22T02:52:56.498Z,0.13
2018-08-22T02:53:16.875Z,0.08
2018-08-22T02:53:37.614Z,0.79
2018-08-22T02:53:57.744Z,1.67
2018-08-22T02:54:17.761Z,1.51
2018-08-22T02:54:37.908Z,1.44
2018-08-22T02:54:58.104Z,1.05
2018-08-22T02:55:18.058Z,1.22
2018-08-22T02:55:38.947Z,1.61
2018-08-22T02:55:58.888Z,0.67
2018-08-22T02:56:20.316Z,0.41
2018-08-22T02:56:39.682Z,0.71
2018-08-22T02:57:00.125Z,1.63
2018-08-22T02:57:21.334Z,0.91
2018-08-22T02:57:40.812Z,0.46
2018-08-22T02:58:01.387Z,0.91
2018-08-22T02:58:22.093Z,1.06
2018-08-22T02:58:41.498Z,0.71
2018-08-22T02:59:02.353Z,0.58
2018-08-22T02:59:22.643Z,0.21
2018-08-22T02:59:42.527Z,0.58
2018-08-22T03:00:03.662Z,0.58
2018-08-22T03:00:23.623Z,1.01
2018-08-22T03:00:43.523Z,0.58
2018-08-22T03:01:04.666Z,0.42
2018-08-22T03:01:24.262Z,1.10
2018-08-22T03:01:44.331Z,0.42
2018-08-22T03:02:04.903Z,0.38
2018-08-22T03:02:24.319Z,0.85
2018-08-22T03:02:44.734Z,0.96
2018-08-22T03:03:06.129Z,0.54
2018-08-22T03:03:25.690Z,1.66
2018-08-22T03:03:45.628Z,1.36
2018-08-22T03:04:06.009Z,0.75
2018-08-22T03:04:26.484Z,0.62
2018-08-22T03:04:46.865Z,1.70
2018-08-22T03:05:07.534Z,1.29
2018-08-22T03:05:27.412Z,0.63
2018-08-22T03:05:47.786Z,0.12
2018-08-22T03:06:08.482Z,0.67
2018-08-22T03:06:28.473Z,0.88
2018-08-22T03:06:49.875Z,0.91
2018-08-22T03:07:09.229Z,1.04
2018-08-22T03:07:29.679Z,1.08
2018-08-22T03:07:51.108Z,0.99
2018-08-22T03:08:10.545Z,0.99
2018-08-22T03:08:31.018Z,0.96
2018-08-22T03:08:52.157Z,0.91
2018-08-22T03:09:11.613Z,0.42
2018-08-22T03:09:32.049Z,0.58
2018-08-22T03:09:52.697Z,0.91
2018-08-22T03:10:12.572Z,0.51
2018-08-22T03:10:33.108Z,0.08
2018-08-22T03:10:53.279Z,0.00
2018-08-22T03:11:13.212Z,0.00
2018-08-22T03:11:34.443Z,0.00
2018-08-22T03:11:54.081Z,0.00
2018-08-22T03:12:14.085Z,0.42
2018-08-22T03:12:34.755Z,0.72
2018-08-22T03:12:54.589Z,0.55
2018-08-22T03:13:14.573Z,0.37
2018-08-22T03:13:35.888Z,0.41
2018-08-22T03:13:55.322Z,0.42
2018-08-22T03:14:15.709Z,0.25
2018-08-22T03:14:36.806Z,0.08
2018-08-22T03:14:56.256Z,0.25
2018-08-22T03:15:16.767Z,0.42
2018-08-22T03:15:37.367Z,0.21
2018-08-22T03:15:56.767Z,0.30
2018-08-22T03:16:17.149Z,0.58
2018-08-22T03:16:37.814Z,0.37
2018-08-22T03:16:57.689Z,0.72
2018-08-22T03:17:18.406Z,0.67
2018-08-22T03:17:38.566Z,0.84
2018-08-22T03:17:58.526Z,1.64
2018-08-22T03:18:19.537Z,1.78
2018-08-22T03:18:39.074Z,0.93
2018-08-22T03:18:59.038Z,0.89
2018-08-22T03:19:20.272Z,0.95
2018-08-22T03:19:39.691Z,0.50
2018-08-22T03:20:00.093Z,0.17
2018-08-22T03:20:21.292Z,0.33
2018-08-22T03:20:40.719Z,0.46
2018-08-22T03:21:01.146Z,0.46
2018-08-22T03:21:22.161Z,0.50
2018-08-22T03:21:41.582Z,0.80
2018-08-22T03:22:02.309Z,0.29
2018-08-22T03:22:22.654Z,0.76
2018-08-22T03:22:42.580Z,0.29
2018-08-22T03:23:03.493Z,0.37
2018-08-22T03:23:23.661Z,0.33
2018-08-22T03:23:43.639Z,0.25
2018-08-22T03:24:04.818Z,0.33
2018-08-22T03:24:24.362Z,0.50
2018-08-22T03:24:44.332Z,0.93
2018-08-22T03:25:05.657Z,1.16
2018-08-22T03:25:25.015Z,1.34
2018-08-22T03:25:45.496Z,0.79
2018-08-22T03:26:07.010Z,0.58
2018-08-22T03:26:26.320Z,0.41
2018-08-22T03:26:46.732Z,0.17
2018-08-22T03:27:07.637Z,0.29
2018-08-22T03:27:27.556Z,0.46
2018-08-22T03:27:48.066Z,0.46
2018-08-22T03:28:08.085Z,1.18
2018-08-22T03:28:28.016Z,0.55
2018-08-22T03:28:49.202Z,0.41
2018-08-22T03:29:08.694Z,0.21
2018-08-22T03:29:29.151Z,0.08
2018-08-22T03:29:50.534Z,0.17
2018-08-22T03:30:09.893Z,0.04
2018-08-22T03:30:30.340Z,0.08
2018-08-22T03:30:51.467Z,0.25
2018-08-22T03:31:10.818Z,0.34
2018-08-22T03:31:31.169Z,0.83
2018-08-22T03:31:52.110Z,1.25
2018-08-22T03:32:11.974Z,1.82
2018-08-22T03:32:32.403Z,1.16
2018-08-22T03:32:53.117Z,1.08
2018-08-22T03:33:13.188Z,1.34
2018-08-22T03:33:33.360Z,1.60
2018-08-22T03:33:53.590Z,1.51
2018-08-22T03:34:13.483Z,1.55
2018-08-22T03:34:34.800Z,0.46
2018-08-22T03:34:54.445Z,0.42
2018-08-22T03:35:14.587Z,0.13
2018-08-22T03:35:35.519Z,0.00
2018-08-22T03:35:55.105Z,0.91
2018-08-22T03:36:15.062Z,0.76
2018-08-22T03:36:36.347Z,0.95
2018-08-22T03:36:55.894Z,0.75
2018-08-22T03:37:15.847Z,1.06
2018-08-22T03:37:36.906Z,0.66
2018-08-22T03:37:56.258Z,1.39
2018-08-22T03:38:16.708Z,1.79
2018-08-22T03:38:37.535Z,0.75
2018-08-22T03:38:57.431Z,0.12
2018-08-22T03:39:17.979Z,0.37
2018-08-22T03:39:38.315Z,0.55
2018-08-22T03:39:58.490Z,0.42
2018-08-22T03:40:19.274Z,0.08
2018-08-22T03:40:39.111Z,0.84
2018-08-22T03:40:59.232Z,0.75
2018-08-22T03:41:19.900Z,0.34
2018-08-22T03:41:39.403Z,1.18
2018-08-22T03:41:59.294Z,0.59
2018-08-22T03:42:20.825Z,1.41
2018-08-22T03:42:39.737Z,1.02
2018-08-22T03:43:00.130Z,2.03
2018-08-22T03:43:21.143Z,0.96
2018-08-22T03:43:40.567Z,0.89
2018-08-22T03:44:00.930Z,0.95
2018-08-22T03:44:21.935Z,2.20
2018-08-22T03:44:41.753Z,1.00
2018-08-22T03:45:02.506Z,0.67
2018-08-22T03:45:22.660Z,1.39
2018-08-22T03:45:42.535Z,1.26
2018-08-22T03:46:03.643Z,1.54
2018-08-22T03:46:23.312Z,1.22
2018-08-22T03:46:43.173Z,1.22
2018-08-22T03:47:04.576Z,0.88
2018-08-22T03:47:24.246Z,0.75
2018-08-22T03:47:44.286Z,0.29
2018-08-22T03:48:04.992Z,0.81
2018-08-22T03:48:24.568Z,0.50
2018-08-22T03:48:44.488Z,0.34
2018-08-22T03:49:05.155Z,0.75
2018-08-22T03:49:25.022Z,0.46
2018-08-22T03:49:45.458Z,0.79
2018-08-22T03:50:06.847Z,1.53
2018-08-22T03:50:26.209Z,1.12
2018-08-22T03:50:46.648Z,0.54
2018-08-22T03:51:07.562Z,0.17
2018-08-22T03:51:27.660Z,0.08
2018-08-22T03:51:47.513Z,0.29
2018-08-22T03:52:08.389Z,0.79
2018-08-22T03:52:28.332Z,1.21
2018-08-22T03:52:49.560Z,1.75
2018-08-22T03:53:08.963Z,1.04
2018-08-22T03:53:29.310Z,0.91
2018-08-22T03:53:50.692Z,0.79
2018-08-22T03:54:10.130Z,0.58
2018-08-22T03:54:30.611Z,0.79
2018-08-22T03:54:52.032Z,1.32
2018-08-22T03:55:11.457Z,1.21
2018-08-22T03:55:31.842Z,0.99
2018-08-22T03:55:52.607Z,0.46
2018-08-22T03:56:12.457Z,0.75
2018-08-22T03:56:32.798Z,0.17
2018-08-22T03:56:53.496Z,0.13
2018-08-22T03:57:13.361Z,0.00
2018-08-22T03:57:34.541Z,0.00
2018-08-22T03:57:54.191Z,0.00
2018-08-22T03:58:14.141Z,0.00
2018-08-22T03:58:35.368Z,0.00
2018-08-22T03:58:54.830Z,0.00
2018-08-22T03:59:15.282Z,0.00
2018-08-22T03:59:36.703Z,0.00
2018-08-22T03:59:56.129Z,0.00
2018-08-22T04:00:17.047Z,0.00
2018-08-22T04:00:37.398Z,0.00
2018-08-22T04:00:57.509Z,0.00
2018-08-22T04:01:17.434Z,0.00
2018-08-22T04:01:38.099Z,0.00
2018-08-22T04:01:58.042Z,0.00
2018-08-22T04:02:19.015Z,0.00
2018-08-22T04:02:39.239Z,0.00
2018-08-22T04:02:59.129Z,0.00
2018-08-22T04:03:20.448Z,0.00
2018-08-22T04:03:40.166Z,0.00
2018-08-22T04:04:00.020Z,0.00
2018-08-22T04:04:21.277Z,0.08
2018-08-22T04:04:40.634Z,0.54
2018-08-22T04:05:01.081Z,0.58
2018-08-22T04:05:22.010Z,0.12
2018-08-22T04:05:41.935Z,0.25
2018-08-22T04:06:02.677Z,0.25
2018-08-22T04:06:42.660Z,0.13
2018-08-22T04:07:03.787Z,0.00
2018-08-22T04:07:23.463Z,0.04
2018-08-22T04:07:43.588Z,0.00
2018-08-22T04:08:04.509Z,0.00
2018-08-22T04:08:24.137Z,0.00
2018-08-22T04:08:44.114Z,0.00
2018-08-22T04:09:05.638Z,0.00
2018-08-22T04:09:24.892Z,0.00
2018-08-22T04:09:44.834Z,0.00
2018-08-22T04:10:06.045Z,0.00
2018-08-22T04:10:25.477Z,0.00
2018-08-22T04:10:45.867Z,0.00
2018-08-22T04:11:07.280Z,0.00
2018-08-22T04:11:26.756Z,0.17
2018-08-22T04:11:47.199Z,0.12
2018-08-22T04:12:07.719Z,0.00
2018-08-22T04:12:27.755Z,0.00
2018-08-22T04:12:47.717Z,0.00
2018-08-22T04:13:08.391Z,0.00
2018-08-22T04:13:28.278Z,0.00
2018-08-22T04:13:49.611Z,0.00
2018-08-22T04:14:09.273Z,0.00
2018-08-22T04:14:29.208Z,0.00
2018-08-22T04:14:50.622Z,0.00
2018-08-22T04:15:10.065Z,0.00
2018-08-22T04:15:30.539Z,0.00
2018-08-22T04:15:51.759Z,0.00
2018-08-22T04:16:11.185Z,0.00
2018-08-22T04:16:31.603Z,0.00
2018-08-22T04:16:52.596Z,0.12
2018-08-22T04:17:12.449Z,0.33
2018-08-22T04:17:32.912Z,0.08
2018-08-22T04:17:53.637Z,0.00
2018-08-22T04:18:13.561Z,0.00
2018-08-22T04:18:34.883Z,0.33
2018-08-22T04:18:54.444Z,0.29
2018-08-22T04:19:15.588Z,0.38
2018-08-22T04:19:35.205Z,0.08
2018-08-22T04:19:54.707Z,0.00
2018-08-22T04:20:15.143Z,0.00
2018-08-22T04:20:35.390Z,0.00
2018-08-22T04:20:55.346Z,0.04
2018-08-22T04:21:15.764Z,0.00
2018-08-22T04:21:36.853Z,0.00
2018-08-22T04:21:56.277Z,0.00
2018-08-22T04:22:16.662Z,0.00
2018-08-22T04:22:37.558Z,0.00
2018-08-22T04:22:57.663Z,0.00
2018-08-22T04:23:17.581Z,0.00
2018-08-22T04:23:38.404Z,0.00
2018-08-22T04:23:58.334Z,0.00
2018-08-22T04:24:19.560Z,0.00
2018-08-22T04:24:39.186Z,0.33
2018-08-22T04:24:59.073Z,0.13
2018-08-22T04:25:20.696Z,0.25
2018-08-22T04:25:39.619Z,0.13
2018-08-22T04:26:00.178Z,0.08
2018-08-22T04:26:21.114Z,0.00
2018-08-22T04:26:40.758Z,0.00
2018-08-22T04:27:00.966Z,0.00
2018-08-22T04:27:21.528Z,0.00
2018-08-22T04:27:41.038Z,0.00
2018-08-22T04:28:00.919Z,0.00
2018-08-22T04:28:21.950Z,0.00
2018-08-22T04:28:41.399Z,0.00
2018-08-22T04:29:01.874Z,0.00
2018-08-22T04:29:22.667Z,0.00
2018-08-22T04:29:42.616Z,0.00
2018-08-22T04:30:03.932Z,0.00
2018-08-22T04:30:23.611Z,0.00
2018-08-22T04:30:43.538Z,0.04
2018-08-22T04:31:04.962Z,0.00
2018-08-22T04:31:24.572Z,0.00
2018-08-22T04:31:44.681Z,0.00
2018-08-22T04:32:05.175Z,0.00
2018-08-22T04:32:25.117Z,0.00